Geyserville, California
Current Conditions -  °F | °C
As of 11:30 AM on Saturday 25 Oct 2014 (Local Time) from KSTS Reporting Station
Haze Haze  
Wind Chill: 66°   Ceiling: 2400
Heat Index: 66°   Visibility: 5mi
Dew Point: 57°   Wind: 12mph
Humidity: 73%   Direction: 200°SSW
Pressure: 30"   Gusts: 22mph
Location:  38.71°N, 122.91°W
Report Text: KSTS 251830Z 20010G19KT 5SM HZ SCT015 BKN024 BKN044 19/14 A3000 RMK AO2
Loading
Personal Weather Stations






























Interactive Weather Map
Tropical Storm Tracking
New forecast layout! Learn more

10-Day Weather Forecast

Advertisements
Track Severe Weather on mobile